Sunday, January 20, 2019, 6:51 AM GMT
Back to Local

CYQA, Muskoka, Ont.

Location: , , Canada Lat: 44.967
Local Time: 6:51 AM GMT ( 6:51 GMT) Lon: -79.3
Time Zone: GMT Elev: 918 ft

Show me the last for .
Show Decoded

2019-01-20 06:42 METAR CYQA 200642Z AUTO 02006KT 330V050 6SM -SN OVC050 M20/M24 A2990 RMK ICG
                 INTMT SLP154 =
2019-01-20 06:35 METAR CYQA 200635Z AUTO 01006KT 330V050 5SM -SN OVC050 M20/M24 A2990 RMK ICG
                 SLP156 =
2019-01-20 06:28 METAR CYQA 200628Z AUTO 36006KT 320V050 6SM -SN OVC050 M20/M24 A2991 RMK ICG
                 SLP157 =
2019-01-20 06:19 METAR CYQA 200619Z AUTO 01007KT 330V080 4SM -SN OVC050 M20/M24 A2991 RMK ICG
                 SLP158 =
2019-01-20 06:09 METAR CYQA 200609Z AUTO 36007KT 320V050 6SM -SN OVC050 M20/M24 A2991 RMK ICG
                 PRESFR SLP159 =
2019-01-20 06:05 METAR CYQA 200605Z AUTO 36005KT 330V050 5SM -SN OVC050 M20/M24 A2992 RMK ICG
                 INTMT PRESFR SLP161 =
2019-01-20 06:01 METAR CYQA 200601Z AUTO 36006KT 330V050 6SM -SN OVC050 M20/M24 A2992 RMK ICG
                 PRESFR SLP162 =
2019-01-20 06:00 METAR CYQA 200600Z AUTO 01007KT 330V050 5SM -SN OVC050 M20/M24 A2993 RMK ICG
                 SLP164 =
2019-01-20 05:55 METAR CYQA 200555Z AUTO 01004KT 330V050 5SM -SN OVC050 M20/M24 A2993 RMK ICG
                 SLP166 =
2019-01-20 05:52 METAR CYQA 200552Z AUTO 01005KT 330V050 6SM -SN OVC050 M20/M24 A2993 RMK ICG
                 SLP166 =
2019-01-20 05:49 METAR CYQA 200549Z AUTO 01006KT 330V060 5SM -SN OVC050 M20/M24 A2994 RMK ICG
                 SLP168 =
2019-01-20 05:20 METAR CYQA 200520Z AUTO 01005KT 330V060 7SM -SN OVC050 M20/M24 A2995 RMK ICG
                 SLP172 =
2019-01-20 05:00 METAR CYQA 200500Z AUTO 02004KT 330V060 4SM -SN OVC050 M20/M24 A2996 RMK ICG
                 SLP175 =
2019-01-20 04:54 METAR CYQA 200454Z AUTO 02004KT 350V080 5SM -SN OVC050 M20/M24 A2996 RMK ICG
                 PRESFR SLP176 =
2019-01-20 04:53 METAR CYQA 200453Z AUTO 03005KT 350V080 6SM -SN OVC050 M20/M24 A2996 RMK ICG
                 PRESFR SLP176 =
2019-01-20 04:43 METAR CYQA 200443Z AUTO 01004KT 340V060 5SM -SN OVC050 M20/M25 A2997 RMK ICG
                 SLP180 =
2019-01-20 04:00 METAR CYQA 200400Z AUTO 04004KT 340V070 9SM -SN OVC048 M20/M25 A3000 RMK ICG
                 SLP191 =
2019-01-20 03:00 METAR CYQA 200300Z AUTO 04005KT 010V090 9SM -SN BKN048 OVC070 M21/M26 A3002 RMK
                 ICG SLP196 =
2019-01-20 02:00 METAR CYQA 200200Z AUTO 06005KT 360V100 9SM -SN OVC048 M21/M25 A3006 RMK ICG
                 SLP213 =
2019-01-20 01:49 METAR CYQA 200149Z AUTO 05005KT 340V090 9SM -SN OVC048 M20/M25 A3007 RMK ICG
                 SLP214 =
2019-01-20 01:38 METAR CYQA 200138Z AUTO 05006KT 350V110 9SM OVC048 M20/M25 A3007 RMK ICG INTMT
                 SLP214 =
2019-01-20 01:00 METAR CYQA 200100Z AUTO 06005KT 010V090 9SM -SN BKN048 OVC075 M20/M25 A3008 RMK
                 ICG INTMT SLP217 =
2019-01-20 00:00 METAR CYQA 200000Z AUTO 05003KT 330V110 9SM -SN SCT050 M20/M24 A3009 RMK ICG
                 SLP222 =
2019-01-19 23:00 METAR CYQA 192300Z AUTO 03005KT 340V080 8SM -SN OVC027 M19/M23 A3012 RMK ICG
                 SLP230 =
2019-01-19 22:20 METAR CYQA 192220Z AUTO 06004KT 350V110 6SM -SN OVC039 M19/M22 A3012 RMK ICG
                 SLP232 =
2019-01-19 22:00 METAR CYQA 192200Z AUTO 07005KT 030V120 3SM -SN OVC031 M19/M23 A3013 RMK ICG
                 SLP234 =
2019-01-19 21:00 METAR CYQA 192100Z AUTO 06004KT 010V120 3SM -SN OVC033 M18/M23 A3014 RMK ICG
                 INTMT PRESFR SLP237 =
2019-01-19 20:56 METAR CYQA 192056Z AUTO 08005KT 020V120 3SM -SN OVC031 M18/M23 A3014 RMK ICG
                 PRESFR SLP238 =
2019-01-19 20:52 METAR CYQA 192052Z AUTO 07005KT 020V110 2 1/2SM -SN OVC031 M18/M23 A3015 RMK VIS
                 VRB 1 3/4-3 ICG PRESFR SLP239 =
2019-01-19 20:31 METAR CYQA 192031Z AUTO 04005KT 020V130 2 1/4SM -SN OVC029 M18/M24 A3017 RMK VIS
                 VRB 1 1/2-3 ICG SLP246 =
2019-01-19 20:29 METAR CYQA 192029Z AUTO 04005KT 020V130 2 1/2SM -SN OVC031 M18/M24 A3017 RMK ICG
                 SLP246 =
2019-01-19 20:20 METAR CYQA 192020Z AUTO 08006KT 040V120 5SM -SN OVC033 M18/M25 A3017 RMK ICG
                 INTMT SLP246 =
2019-01-19 20:00 METAR CYQA 192000Z AUTO 07003KT 020V120 9SM -SN BKN045 OVC055 M18/M26 A3018 RMK
                 ICG INTMT SLP250 =
2019-01-19 19:55 METAR CYQA 191955Z AUTO 05003KT 010V120 9SM -SN OVC045 M18/M27 A3018 RMK ICG
                 SLP251 =
2019-01-19 19:00 METAR CYQA 191900Z AUTO 08003KT 010V110 9SM OVC050 M18/M27 A3020 RMK ICG SLP256
                 =
2019-01-19 18:00 METAR CYQA 191800Z AUTO VRB05KT 9SM OVC070 M18/M27 A3020 RMK ICG SLP257 =
2019-01-19 17:00 METAR CYQA 191700Z AUTO 08005KT 020V130 9SM OVC070 M19/M28 A3022 RMK ICG PRESFR
                 SLP265 =
2019-01-19 16:00 METAR CYQA 191600Z AUTO 07005KT 020V100 9SM OVC090 M20/M28 A3028 RMK ICG SLP285
                 =
2019-01-19 15:00 METAR CYQA 191500Z AUTO 07007KT 020V100 9SM SCT090 SCT110 M21/M28 A3029 RMK ICG
                 INTMT SLP289 =
2019-01-19 14:00 METAR CYQA 191400Z AUTO 06005KT 010V110 9SM FEW100 M22/M27 A3030 RMK ICG INTMT
                 PRESFR SLP292 =
2019-01-19 13:00 METAR CYQA 191300Z AUTO 07003KT 360V130 9SM FEW085 M22/M27 A3033 RMK ICG SLP300
                 =
2019-01-19 12:00 METAR CYQA 191200Z AUTO 05003KT 360V160 9SM OVC120 M22/M27 A3032 RMK ICG SLP293
                 =
2019-01-19 11:00 METAR CYQA 191100Z AUTO VRB02KT 9SM OVC110 M22/M27 A3029 RMK ICG SLP284 =
2019-01-19 10:00 METAR CYQA 191000Z AUTO 03003KT 340V090 9SM OVC110 M21/M26 A3028 RMK ICG SLP279
                 =
2019-01-19 09:00 METAR CYQA 190900Z AUTO 02004KT 330V080 9SM OVC120 M21/M26 A3030 RMK ICG INTMT
                 SLP285 =
2019-01-19 08:00 METAR CYQA 190800Z AUTO 02005KT 340V080 9SM OVC130 M20/M26 A3031 RMK ICG SLP290
                 =
2019-01-19 07:00 METAR CYQA 190700Z AUTO VRB06KT 9SM OVC140 M20/M26 A3029 RMK ICG SLP284 =

Support USWX by starting your Amazon purchase here.